createdAt,value
2023-05-13T00:01:27.704Z,14.02
2023-05-13T00:06:33.389Z,14.36
2023-05-13T00:11:36.905Z,14.00
2023-05-13T00:16:40.564Z,14.22
2023-05-13T00:21:45.340Z,14.18
2023-05-13T00:26:48.772Z,14.06
2023-05-13T00:31:54.034Z,13.82
2023-05-13T00:37:01.359Z,13.09
2023-05-13T00:42:12.258Z,13.85
2023-05-13T00:47:17.057Z,13.54
2023-05-13T00:52:23.849Z,13.53
2023-05-13T00:57:30.692Z,13.25
2023-05-13T01:02:45.729Z,10.67
2023-05-13T01:08:05.218Z,13.25
2023-05-13T01:13:13.805Z,13.41
2023-05-13T01:18:39.277Z,10.78
2023-05-13T01:23:48.836Z,11.60
2023-05-13T01:28:52.589Z,12.39
2023-05-13T01:34:01.873Z,12.96
2023-05-13T01:39:11.851Z,12.91
2023-05-13T01:44:45.675Z,13.15
2023-05-13T01:49:55.823Z,11.88
2023-05-13T01:55:06.119Z,13.11
2023-05-13T02:00:17.462Z,11.45
2023-05-13T02:05:37.003Z,12.67
2023-05-13T02:11:11.816Z,12.50
2023-05-13T02:16:23.835Z,12.23
2023-05-13T02:21:28.427Z,12.40
2023-05-13T02:26:44.726Z,12.41
2023-05-13T02:32:14.310Z,12.24
2023-05-13T02:37:26.900Z,12.05
2023-05-13T02:43:27.356Z,12.39
2023-05-13T02:54:51.602Z,12.13
2023-05-13T03:00:30.286Z,11.99
2023-05-13T03:06:15.566Z,12.18
2023-05-13T03:17:39.408Z,12.12
2023-05-13T03:23:17.762Z,11.77
2023-05-13T03:34:55.368Z,11.06
2023-05-13T03:40:41.834Z,11.70
2023-05-13T03:46:31.349Z,11.69
2023-05-13T03:58:00.966Z,11.54
2023-05-13T04:03:04.854Z,11.47
2023-05-13T04:08:12.406Z,9.70
2023-05-13T04:13:17.440Z,11.40
2023-05-13T04:18:21.192Z,11.37
2023-05-13T04:23:26.100Z,10.90
2023-05-13T04:28:29.653Z,9.61
2023-05-13T04:33:34.373Z,11.31
2023-05-13T04:38:39.842Z,11.03
2023-05-13T04:43:43.773Z,11.16
2023-05-13T04:48:48.487Z,11.43
2023-05-13T04:53:54.502Z,11.47
2023-05-13T04:58:58.533Z,9.67
2023-05-13T05:04:02.661Z,11.49
2023-05-13T05:09:08.559Z,11.03
2023-05-13T05:14:13.017Z,11.34
2023-05-13T05:19:24.259Z,11.60
2023-05-13T05:24:31.823Z,11.58
2023-05-13T05:29:35.878Z,11.54
2023-05-13T05:34:41.176Z,11.36
2023-05-13T05:39:48.503Z,10.62
2023-05-13T05:44:52.190Z,11.29
2023-05-13T05:49:56.007Z,11.30
2023-05-13T05:55:01.314Z,11.66
2023-05-13T06:00:06.001Z,11.04
2023-05-13T06:05:18.601Z,11.70
2023-05-13T06:10:25.117Z,11.77
2023-05-13T06:15:29.796Z,11.61
2023-05-13T06:20:34.058Z,11.85
2023-05-13T06:25:39.071Z,11.63
2023-05-13T06:30:46.127Z,11.88
2023-05-13T06:35:49.970Z,11.95
2023-05-13T06:40:57.656Z,12.05
2023-05-13T06:46:08.505Z,11.73
2023-05-13T06:51:13.290Z,10.38
2023-05-13T06:56:18.624Z,11.77
2023-05-13T07:01:22.433Z,11.65
2023-05-13T07:06:26.131Z,12.40
2023-05-13T07:11:31.664Z,12.08
2023-05-13T07:16:35.390Z,12.57
2023-05-13T07:21:39.282Z,10.93
2023-05-13T07:26:44.277Z,12.70
2023-05-13T07:31:49.842Z,10.04
2023-05-13T07:36:55.361Z,12.81
2023-05-13T07:42:00.891Z,12.86
2023-05-13T07:47:05.278Z,12.79
2023-05-13T07:52:13.833Z,12.96
2023-05-13T07:57:21.514Z,12.84
2023-05-13T08:02:28.117Z,12.75
2023-05-13T08:07:31.860Z,13.13
2023-05-13T08:12:42.112Z,13.15
2023-05-13T08:17:53.781Z,12.73
2023-05-13T08:22:58.576Z,13.32
2023-05-13T08:28:04.264Z,13.40
2023-05-13T08:33:13.948Z,13.44
2023-05-13T08:38:20.049Z,13.43
2023-05-13T08:43:34.194Z,13.35
2023-05-13T08:48:47.177Z,13.32
2023-05-13T08:53:52.462Z,13.97
2023-05-13T08:58:57.508Z,13.51
2023-05-13T09:04:08.883Z,13.88
2023-05-13T09:09:12.759Z,13.72
2023-05-13T09:14:30.165Z,13.47
2023-05-13T09:19:34.056Z,13.97
2023-05-13T09:24:41.627Z,13.91
2023-05-13T09:29:52.788Z,14.14
2023-05-13T09:35:09.614Z,12.82
2023-05-13T09:40:15.102Z,13.82
2023-05-13T09:45:21.886Z,14.21
2023-05-13T09:50:26.489Z,14.28
2023-05-13T09:55:30.358Z,14.37
2023-05-13T10:00:37.484Z,14.43
2023-05-13T10:05:43.415Z,14.48
2023-05-13T10:10:49.604Z,14.64
2023-05-13T10:15:57.084Z,14.64
2023-05-13T10:21:01.228Z,14.40
2023-05-13T10:26:07.899Z,14.73
2023-05-13T10:31:12.771Z,14.94
2023-05-13T10:36:55.215Z,15.16
2023-05-13T10:42:29.810Z,14.80
2023-05-13T10:47:39.209Z,15.29
2023-05-13T10:52:44.399Z,14.78
2023-05-13T10:58:13.976Z,15.60
2023-05-13T11:03:30.335Z,15.70
2023-05-13T11:09:01.195Z,14.02
2023-05-13T11:14:10.079Z,15.83
2023-05-13T11:19:23.107Z,14.83
2023-05-13T11:24:28.045Z,15.53
2023-05-13T11:29:33.366Z,13.77
2023-05-13T11:34:39.514Z,15.75
2023-05-13T11:39:43.193Z,15.61
2023-05-13T11:44:48.177Z,16.18
2023-05-13T11:49:53.452Z,15.98
2023-05-13T11:54:59.190Z,16.19
2023-05-13T12:00:05.693Z,16.10
2023-05-13T12:05:13.701Z,16.32
2023-05-13T12:10:18.171Z,16.27
2023-05-13T12:15:23.666Z,16.74
2023-05-13T12:20:28.752Z,16.86
2023-05-13T12:25:44.245Z,17.08
2023-05-13T12:30:53.517Z,17.16
2023-05-13T12:36:20.182Z,17.03
2023-05-13T12:41:25.877Z,17.35
2023-05-13T12:46:30.558Z,17.44
2023-05-13T12:51:35.897Z,17.10
2023-05-13T12:56:40.321Z,17.47
2023-05-13T13:01:44.128Z,17.94
2023-05-13T13:06:49.197Z,17.93
2023-05-13T13:11:52.858Z,18.04
2023-05-13T13:16:56.509Z,17.57
2023-05-13T13:22:01.698Z,18.37
2023-05-13T13:27:05.596Z,18.30
2023-05-13T13:32:09.630Z,18.41
2023-05-13T13:37:16.132Z,18.37
2023-05-13T13:42:19.831Z,18.41
2023-05-13T13:47:23.560Z,18.51
2023-05-13T13:52:29.085Z,18.62
2023-05-13T13:57:32.731Z,16.86
2023-05-13T14:02:36.503Z,17.93
2023-05-13T14:07:41.761Z,18.15
2023-05-13T14:12:45.602Z,19.00
2023-05-13T14:17:49.308Z,18.65
2023-05-13T14:22:54.478Z,17.68
2023-05-13T14:27:58.109Z,19.06
2023-05-13T14:33:01.767Z,18.02
2023-05-13T14:38:06.808Z,17.98
2023-05-13T14:43:10.557Z,18.71
2023-05-13T14:48:14.688Z,18.53
2023-05-13T14:53:19.704Z,19.42
2023-05-13T14:58:23.370Z,18.01
2023-05-13T15:03:27.006Z,19.60
2023-05-13T15:08:32.147Z,19.39
2023-05-13T15:13:36.961Z,18.44
2023-05-13T15:18:41.071Z,19.67
2023-05-13T15:23:46.027Z,19.64
2023-05-13T15:28:49.542Z,19.10
2023-05-13T15:33:53.128Z,19.51
2023-05-13T15:38:58.113Z,19.49
2023-05-13T15:44:01.809Z,19.41
2023-05-13T15:49:05.424Z,18.40
2023-05-13T15:54:10.263Z,19.17
2023-05-13T15:59:13.990Z,18.99
2023-05-13T16:04:17.903Z,18.72
2023-05-13T16:09:22.954Z,18.87
2023-05-13T16:14:26.614Z,18.37
2023-05-13T16:19:30.231Z,18.69
2023-05-13T16:24:35.089Z,18.64
2023-05-13T16:29:38.627Z,18.36
2023-05-13T16:34:42.660Z,18.42
2023-05-13T16:39:47.733Z,18.46
2023-05-13T16:44:51.658Z,16.79
2023-05-13T16:49:56.265Z,15.82
2023-05-13T16:55:01.227Z,16.97
2023-05-13T17:00:05.545Z,18.00
2023-05-13T17:05:09.517Z,17.92
2023-05-13T17:10:14.655Z,17.46
2023-05-13T17:15:18.537Z,16.87
2023-05-13T17:20:22.592Z,17.73
2023-05-13T17:25:28.037Z,17.71
2023-05-13T17:30:32.033Z,18.12
2023-05-13T17:35:35.897Z,18.11
2023-05-13T17:40:41.071Z,17.63
2023-05-13T17:45:45.243Z,18.09
2023-05-13T17:50:49.011Z,17.57
2023-05-13T17:55:54.601Z,17.56
2023-05-13T18:00:58.275Z,16.54
2023-05-13T18:06:02.027Z,17.53
2023-05-13T18:11:07.403Z,17.67
2023-05-13T18:16:11.748Z,17.26
2023-05-13T18:21:15.430Z,17.85
2023-05-13T18:26:20.865Z,17.87
2023-05-13T18:31:24.492Z,17.73
2023-05-13T18:36:28.368Z,17.42
2023-05-13T18:41:33.444Z,17.39
2023-05-13T18:46:37.108Z,17.33
2023-05-13T18:51:40.699Z,17.41
2023-05-13T18:56:45.859Z,16.55
2023-05-13T19:01:49.983Z,17.40
2023-05-13T19:06:53.750Z,15.89
2023-05-13T19:11:58.767Z,17.12
2023-05-13T19:17:02.504Z,15.90
2023-05-13T19:22:06.609Z,15.64
2023-05-13T19:27:11.697Z,16.70
2023-05-13T19:32:15.396Z,16.26
2023-05-13T19:37:19.078Z,17.10
2023-05-13T19:42:24.327Z,17.09
2023-05-13T19:47:30.500Z,16.41
2023-05-13T19:52:34.319Z,16.79
2023-05-13T19:57:42.414Z,17.02
2023-05-13T20:02:46.443Z,16.60
2023-05-13T20:07:50.172Z,16.55
2023-05-13T20:12:55.264Z,16.52
2023-05-13T20:17:59.152Z,16.73
2023-05-13T20:23:02.772Z,16.32
2023-05-13T20:28:07.962Z,16.21
2023-05-13T20:33:11.685Z,15.85
2023-05-13T20:38:15.198Z,15.92
2023-05-13T20:43:20.115Z,16.33
2023-05-13T20:48:23.706Z,15.91
2023-05-13T20:53:27.288Z,16.14
2023-05-13T20:58:32.368Z,15.94
2023-05-13T21:03:36.047Z,15.86
2023-05-13T21:08:40.258Z,15.96
2023-05-13T21:13:45.336Z,15.95
2023-05-13T21:18:49.058Z,15.49
2023-05-13T21:23:52.734Z,15.25
2023-05-13T21:28:58.820Z,14.83
2023-05-13T21:34:02.389Z,15.50
2023-05-13T21:39:06.219Z,15.11
2023-05-13T21:44:11.428Z,15.37
2023-05-13T21:49:15.199Z,14.97
2023-05-13T21:54:20.248Z,14.78
2023-05-13T21:59:25.195Z,14.75
2023-05-13T22:04:28.796Z,14.32
2023-05-13T22:09:32.743Z,14.63
2023-05-13T22:14:37.782Z,13.08
2023-05-13T22:19:41.706Z,15.08
2023-05-13T22:24:45.440Z,14.69
2023-05-13T22:29:50.631Z,15.00
2023-05-13T22:34:54.188Z,14.94
2023-05-13T22:39:57.846Z,14.45
2023-05-13T22:45:02.902Z,14.48
2023-05-13T22:50:07.566Z,14.76
2023-05-13T22:55:11.644Z,14.48
2023-05-13T23:00:17.545Z,14.37
2023-05-13T23:05:21.332Z,12.94
2023-05-13T23:10:25.016Z,14.18
2023-05-13T23:15:30.026Z,14.16
2023-05-13T23:20:33.546Z,14.67
2023-05-13T23:25:37.147Z,13.97
2023-05-13T23:30:42.827Z,14.73
2023-05-13T23:35:46.377Z,14.26
2023-05-13T23:40:50.194Z,14.40
2023-05-13T23:45:55.489Z,14.62
2023-05-13T23:50:59.186Z,14.06
2023-05-13T23:56:02.856Z,14.38
